Time;durP1;ratioP1;P1;durP2;ratioP2;P2;SDS_P1;SDS_P2;PMS_P1;PMS_P2;Temp;Humidity;BMP_temperature;BMP_pressure;BME280_temperature;BME280_humidity;BME280_pressure;Samples;Min_cycle;Max_cycle;Signal;HPM_P1;HPM_P2
2022/12/13 00:01:19;;;;;;;0.00;0.00;;;;;;;2.46;58.21;94571.00;5044253;28;20309;-65
2022/12/13 00:03:46;;;;;;;0.00;0.00;;;;;;;2.68;59.11;94590.28;5039112;28;20224;-65
2022/12/13 00:06:14;;;;;;;0.00;0.00;;;;;;;2.51;58.38;94582.28;5034621;28;20620;-65
2022/12/13 00:08:41;;;;;;;0.00;0.00;;;;;;;2.80;58.35;94599.69;5040359;28;20199;-63
2022/12/13 00:11:10;;;;;;;0.00;0.00;;;;;;;2.41;57.89;94574.19;5029609;28;20262;-65
2022/12/13 00:13:38;;;;;;;0.00;0.00;;;;;;;2.71;57.96;94595.00;5048550;28;20778;-63
2022/12/13 00:16:09;;;;;;;3.28;2.97;;;;;;;2.58;57.73;94595.94;5048651;28;20200;-61
2022/12/13 00:18:35;;;;;;;0.00;0.00;;;;;;;2.75;58.27;94602.16;5035071;28;20216;-64
2022/12/13 00:21:14;;;;;;;0.00;0.00;;;;;;;2.77;58.12;94600.09;5048563;28;20682;-62
2022/12/13 00:23:41;;;;;;;0.00;0.00;;;;;;;2.42;58.85;94606.81;5041975;28;20637;-66
2022/12/13 00:26:14;;;;;;;2.35;2.15;;;;;;;2.44;58.99;94614.38;5044149;28;20276;-65
2022/12/13 00:28:41;;;;;;;0.00;0.00;;;;;;;2.04;59.18;94613.88;5045006;28;20212;-63
2022/12/13 00:31:09;;;;;;;0.00;0.00;;;;;;;1.98;59.69;94606.97;5046794;28;20200;-62
2022/12/13 00:33:56;;;;;;;0.03;0.03;;;;;;;2.15;58.63;94615.81;5041569;28;20625;-64
2022/12/13 00:36:23;;;;;;;0.00;0.00;;;;;;;2.14;59.15;94619.38;5052350;28;20238;-62
2022/12/13 00:38:59;;;;;;;0.28;0.28;;;;;;;1.96;58.64;94611.53;5045581;28;20211;-62
2022/12/13 00:41:31;;;;;;;0.00;0.00;;;;;;;2.03;58.03;94613.09;5047286;28;20231;-62
2022/12/13 00:43:59;;;;;;;0.00;0.00;;;;;;;2.15;58.21;94618.38;5052470;28;20212;-64
2022/12/13 00:46:27;;;;;;;0.00;0.00;;;;;;;2.36;58.17;94612.03;5052276;28;20211;-61
2022/12/13 00:48:57;;;;;;;0.00;0.00;;;;;;;2.43;58.33;94616.16;5038227;28;20315;-64
2022/12/13 00:51:25;;;;;;;0.10;0.10;;;;;;;2.24;57.53;94616.31;5039662;28;20576;-61
2022/12/13 00:53:53;;;;;;;0.00;0.00;;;;;;;2.15;58.35;94622.75;5044886;28;20675;-62
2022/12/13 00:56:24;;;;;;;0.05;0.05;;;;;;;1.75;57.67;94615.25;5047477;28;20193;-62
2022/12/13 00:58:51;;;;;;;0.80;0.80;;;;;;;1.98;57.88;94620.69;5043850;28;20196;-61
2022/12/13 01:01:24;;;;;;;0.00;0.00;;;;;;;2.13;58.30;94610.03;5052147;28;20278;-64
2022/12/13 01:03:55;;;;;;;0.00;0.00;;;;;;;1.92;58.75;94610.38;5041322;28;20200;-62
2022/12/13 01:06:37;;;;;;;0.00;0.00;;;;;;;1.86;58.79;94617.16;5050152;28;20291;-64
2022/12/13 01:09:06;;;;;;;0.00;0.00;;;;;;;1.81;58.24;94613.63;5052331;28;20227;-62
2022/12/13 01:11:33;;;;;;;0.22;0.22;;;;;;;1.72;58.42;94604.53;5038041;28;20255;-62
2022/12/13 01:14:01;;;;;;;0.00;0.00;;;;;;;1.56;59.58;94615.38;5052011;28;20303;-62
2022/12/13 01:16:28;;;;;;;0.90;0.90;;;;;;;1.70;59.42;94622.03;5049195;28;20607;-63
2022/12/13 01:18:56;;;;;;;0.00;0.00;;;;;;;1.65;59.84;94627.03;5040972;28;20250;-65
2022/12/13 01:21:23;;;;;;;0.00;0.00;;;;;;;1.84;59.70;94623.56;5036258;28;20225;-63
2022/12/13 01:23:50;;;;;;;0.00;0.00;;;;;;;1.95;59.54;94620.31;5031603;28;20259;-63
2022/12/13 01:26:20;;;;;;;0.00;0.00;;;;;;;1.68;59.33;94626.63;5031662;28;20247;-63
2022/12/13 01:28:47;;;;;;;0.00;0.00;;;;;;;1.71;59.26;94610.72;5031591;28;20237;-64
2022/12/13 01:31:18;;;;;;;0.15;0.15;;;;;;;1.95;59.16;94620.31;5046602;28;20208;-63
2022/12/13 01:33:46;;;;;;;0.00;0.00;;;;;;;2.24;58.61;94619.72;5051521;28;20696;-63
2022/12/13 01:36:17;;;;;;;0.00;0.00;;;;;;;1.87;59.30;94617.97;5037112;28;20205;-64
2022/12/13 01:38:44;;;;;;;0.00;0.00;;;;;;;2.02;58.28;94615.88;5037453;28;20196;-62
2022/12/13 01:41:17;;;;;;;0.00;0.00;;;;;;;1.83;58.43;94617.59;5051497;28;20327;-63
2022/12/13 01:43:47;;;;;;;0.00;0.00;;;;;;;1.82;58.84;94621.19;5037359;28;20197;-63
2022/12/13 01:46:16;;;;;;;0.63;0.63;;;;;;;1.78;58.99;94619.22;5051799;28;20220;-64
2022/12/13 01:49:01;;;;;;;0.00;0.00;;;;;;;2.06;58.16;94622.22;5046159;28;20324;-61
2022/12/13 01:51:41;;;;;;;0.03;0.03;;;;;;;1.71;57.71;94619.28;5037656;28;20201;-62
2022/12/13 01:54:11;;;;;;;0.43;0.10;;;;;;;1.76;57.55;94627.19;5044496;28;20235;-64
2022/12/13 01:56:51;;;;;;;0.00;0.00;;;;;;;2.01;57.36;94624.63;5039809;28;20226;-63
2022/12/13 01:59:19;;;;;;;0.00;0.00;;;;;;;2.20;57.31;94618.53;5036865;28;20209;-62
2022/12/13 02:01:49;;;;;;;0.00;0.00;;;;;;;2.18;57.60;94625.69;5051405;28;20363;-61
2022/12/13 02:04:30;;;;;;;0.08;0.08;;;;;;;2.22;57.24;94621.72;5051011;28;20307;-64
2022/12/13 02:06:58;;;;;;;0.10;0.10;;;;;;;2.31;57.40;94629.97;5051523;28;20189;-63
2022/12/13 02:09:25;;;;;;;3.53;0.95;;;;;;;2.31;57.50;94625.59;5037009;28;20221;-63
2022/12/13 02:11:52;;;;;;;0.00;0.00;;;;;;;2.20;57.82;94628.06;5051138;28;20258;-63
2022/12/13 02:14:19;;;;;;;0.00;0.00;;;;;;;2.18;57.80;94625.69;5050855;28;20329;-63
2022/12/13 02:17:05;;;;;;;0.00;0.00;;;;;;;2.03;58.14;94622.63;5050591;28;20234;-63
2022/12/13 02:19:43;;;;;;;0.00;0.00;;;;;;;2.33;57.99;94621.03;5050416;28;20660;-63
2022/12/13 02:22:31;;;;;;;0.00;0.00;;;;;;;2.43;58.24;94623.09;5030693;28;20211;-63
2022/12/13 02:25:35;;;;;;;0.00;0.00;;;;;;;2.44;57.83;94620.34;5047211;28;20205;-63
2022/12/13 02:28:21;;;;;;;0.15;0.15;;;;;;;2.36;57.76;94622.38;5047996;28;20295;-66
2022/12/13 02:31:04;;;;;;;0.00;0.00;;;;;;;2.35;58.13;94626.78;5042844;28;20200;-63
2022/12/13 02:34:05;;;;;;;0.00;0.00;;;;;;;2.22;57.88;94629.47;5049840;28;20191;-63
2022/12/13 02:36:48;;;;;;;0.00;0.00;;;;;;;2.17;58.44;94624.13;5021737;28;20688;-63
2022/12/13 02:39:29;;;;;;;0.00;0.00;;;;;;;1.96;58.21;94634.81;5050088;28;20196;-63
2022/12/13 02:42:15;;;;;;;0.20;0.20;;;;;;;2.16;58.83;94640.63;5049914;28;20207;-61
2022/12/13 02:45:08;;;;;;;0.00;0.00;;;;;;;2.33;58.67;94639.13;5049978;28;20200;-61
2022/12/13 02:47:40;;;;;;;0.00;0.00;;;;;;;2.27;58.64;94639.94;5038796;28;20258;-62
2022/12/13 02:50:09;;;;;;;0.00;0.00;;;;;;;2.32;58.18;94626.41;5049864;28;20223;-63
2022/12/13 02:52:38;;;;;;;0.00;0.00;;;;;;;2.20;58.10;94634.03;5035778;28;20201;-62
2022/12/13 02:55:12;;;;;;;0.00;0.00;;;;;;;2.23;57.75;94638.78;5041145;28;20586;-63
2022/12/13 02:57:42;;;;;;;0.00;0.00;;;;;;;2.32;57.59;94627.19;5031593;28;20225;-62
2022/12/13 03:00:15;;;;;;;0.05;0.05;;;;;;;1.88;57.88;94624.72;5049746;28;20230;-63
2022/12/13 03:02:58;;;;;;;0.25;0.25;;;;;;;1.87;57.94;94634.28;5048108;28;20197;-62
2022/12/13 03:09:13;;;;;;;0.00;0.00;;;;;;;2.02;57.77;94633.97;5049414;28;20667;-65
2022/12/13 03:14:59;;;;;;;0.00;0.00;;;;;;;1.89;58.45;94641.81;5049407;28;20235;-64
2022/12/13 03:17:35;;;;;;;0.00;0.00;;;;;;;1.79;58.80;94642.25;5049743;28;20721;-63
2022/12/13 03:20:03;;;;;;;0.00;0.00;;;;;;;1.78;58.65;94629.53;5035243;28;20239;-61
2022/12/13 03:22:49;;;;;;;0.00;0.00;;;;;;;1.70;59.12;94638.31;5037305;28;20262;-63
2022/12/13 03:25:17;;;;;;;0.00;0.00;;;;;;;1.70;58.74;94629.78;5029293;28;20193;-63
2022/12/13 03:27:59;;;;;;;0.40;0.40;;;;;;;1.58;59.49;94636.59;5041139;28;20211;-64
2022/12/13 03:30:29;;;;;;;0.40;0.40;;;;;;;1.76;58.75;94637.50;5037938;28;20204;-62
2022/12/13 03:32:56;;;;;;;0.00;0.00;;;;;;;1.74;58.61;94639.50;5049212;28;20592;-62
2022/12/13 03:35:23;;;;;;;0.00;0.00;;;;;;;1.89;58.78;94636.63;5029260;28;20209;-61
2022/12/13 03:38:01;;;;;;;0.88;0.70;;;;;;;1.88;58.41;94641.00;5029319;28;20241;-63
2022/12/13 03:40:28;;;;;;;0.00;0.00;;;;;;;1.75;58.37;94637.72;5029159;28;20213;-66
2022/12/13 03:42:55;;;;;;;0.73;0.73;;;;;;;1.75;58.73;94640.31;5042386;28;20201;-63
2022/12/13 03:45:22;;;;;;;1.95;1.00;;;;;;;1.82;58.29;94641.84;5035073;28;20251;-64
2022/12/13 03:47:49;;;;;;;0.32;0.32;;;;;;;1.86;58.03;94632.66;5037972;28;20197;-64
2022/12/13 03:50:16;;;;;;;0.00;0.00;;;;;;;1.76;58.12;94636.72;5046361;28;20196;-64
2022/12/13 03:53:00;;;;;;;0.00;0.00;;;;;;;1.54;58.64;94643.97;5035292;28;20549;-65
2022/12/13 03:55:27;;;;;;;0.00;0.00;;;;;;;1.60;58.67;94657.84;5037337;28;20259;-64
2022/12/13 03:57:54;;;;;;;0.00;0.00;;;;;;;1.70;58.42;94658.19;5043508;28;20232;-63
2022/12/13 04:00:21;;;;;;;0.22;0.22;;;;;;;1.43;59.74;94659.31;5028079;28;20302;-64
2022/12/13 04:02:48;;;;;;;0.00;0.00;;;;;;;1.60;58.72;94656.06;5042914;28;20703;-62
2022/12/13 04:05:17;;;;;;;0.52;0.52;;;;;;;1.45;59.26;94659.91;5037546;28;20214;-61
2022/12/13 04:07:45;;;;;;;9.80;1.20;;;;;;;1.42;59.16;94663.69;5033806;28;20208;-61
2022/12/13 04:10:15;;;;;;;0.05;0.05;;;;;;;1.45;59.21;94667.66;5028833;28;20200;-62
2022/12/13 04:15:39;;;;;;;0.10;0.10;;;;;;;1.50;58.66;94683.31;5038730;28;20618;-63
2022/12/13 04:18:06;;;;;;;0.00;0.00;;;;;;;1.44;58.76;94678.97;5045006;28;20204;-64
2022/12/13 04:20:32;;;;;;;0.00;0.00;;;;;;;1.20;58.65;94689.97;5040608;28;20651;-62
2022/12/13 04:22:59;;;;;;;0.00;0.00;;;;;;;1.28;58.97;94685.38;5028776;28;20193;-64
2022/12/13 04:25:37;;;;;;;0.82;0.82;;;;;;;1.38;58.61;94703.03;5028715;28;20189;-64
2022/12/13 04:28:05;;;;;;;0.00;0.00;;;;;;;1.33;59.12;94695.09;5040777;28;20567;-63
2022/12/13 04:30:33;;;;;;;0.00;0.00;;;;;;;1.30;58.25;94705.81;5037237;28;20226;-62
2022/12/13 04:33:07;;;;;;;0.25;0.25;;;;;;;1.26;58.22;94709.81;5034346;28;20208;-62
2022/12/13 04:35:34;;;;;;;0.00;0.00;;;;;;;1.22;58.65;94721.53;5048529;28;20199;-62
2022/12/13 04:38:01;;;;;;;0.38;0.38;;;;;;;1.12;58.38;94721.94;5047982;28;20895;-63
2022/12/13 04:40:27;;;;;;;0.00;0.00;;;;;;;0.85;58.68;94741.81;5048389;28;20243;-65
2022/12/13 04:42:54;;;;;;;0.00;0.00;;;;;;;0.96;58.74;94730.09;5048513;28;20189;-63
2022/12/13 04:45:21;;;;;;;0.00;0.00;;;;;;;0.95;58.40;94721.56;5034257;28;20203;-63
2022/12/13 04:47:49;;;;;;;6.22;2.25;;;;;;;0.78;58.87;94735.88;5048344;28;20200;-62
2022/12/13 04:50:15;;;;;;;0.00;0.00;;;;;;;0.94;58.59;94740.63;5030915;28;20296;-63
2022/12/13 04:52:43;;;;;;;0.00;0.00;;;;;;;0.94;58.20;94745.78;5031844;28;20201;-64
2022/12/13 04:55:13;;;;;;;0.00;0.00;;;;;;;0.95;58.21;94742.19;5038761;28;20291;-61
2022/12/13 04:57:40;;;;;;;1.70;1.60;;;;;;;1.01;57.89;94746.56;5044704;28;20197;-64
2022/12/13 05:00:12;;;;;;;0.25;0.20;;;;;;;0.97;57.94;94750.53;5040315;28;20202;-64
2022/12/13 05:02:40;;;;;;;0.22;0.22;;;;;;;1.10;58.21;94751.50;5027438;28;20189;-64
2022/12/13 05:05:08;;;;;;;0.22;0.22;;;;;;;1.02;58.34;94740.41;5027389;28;20457;-65
2022/12/13 05:07:38;;;;;;;0.00;0.00;;;;;;;1.04;58.29;94746.16;5027690;28;20216;-65
2022/12/13 05:10:10;;;;;;;0.10;0.10;;;;;;;0.92;58.85;94755.50;5027442;28;20627;-65
2022/12/13 05:12:37;;;;;;;1.75;1.65;;;;;;;0.93;58.85;94749.34;5038318;28;20242;-65
2022/12/13 05:15:05;;;;;;;0.00;0.00;;;;;;;0.79;58.52;94750.34;5039308;28;20201;-62
2022/12/13 05:17:31;;;;;;;0.00;0.00;;;;;;;0.90;58.47;94760.06;5045808;28;20193;-63
2022/12/13 05:19:58;;;;;;;0.40;0.40;;;;;;;0.65;58.50;94761.66;5043270;28;20291;-65
2022/12/13 05:22:25;;;;;;;0.08;0.08;;;;;;;0.86;58.55;94753.72;5038041;28;20809;-63
2022/12/13 05:24:52;;;;;;;0.20;0.20;;;;;;;0.86;59.54;94761.47;5050153;28;20203;-65
2022/12/13 05:27:21;;;;;;;0.30;0.30;;;;;;;0.90;58.97;94757.50;5051929;28;20299;-62
2022/12/13 05:29:55;;;;;;;0.00;0.00;;;;;;;1.00;59.14;94754.50;5037746;28;20192;-63
2022/12/13 05:32:38;;;;;;;0.00;0.00;;;;;;;0.84;58.80;94766.03;5040864;28;20247;-62
2022/12/13 05:35:12;;;;;;;0.00;0.00;;;;;;;1.10;57.89;94762.63;5045832;28;20204;-62
2022/12/13 05:37:39;;;;;;;0.00;0.00;;;;;;;0.81;58.32;94770.78;5043238;28;20683;-65
2022/12/13 05:40:07;;;;;;;0.40;0.40;;;;;;;0.95;58.10;94773.16;5036935;28;20197;-63
2022/12/13 05:42:37;;;;;;;0.38;0.25;;;;;;;1.03;58.43;94772.97;5051525;28;20223;-65
2022/12/13 05:45:06;;;;;;;0.00;0.00;;;;;;;1.18;58.24;94788.25;5034632;28;20710;-61
2022/12/13 05:47:33;;;;;;;0.10;0.10;;;;;;;0.73;59.96;94794.97;5039733;28;20192;-62
2022/12/13 05:50:00;;;;;;;0.17;0.17;;;;;;;0.79;59.25;94798.56;5050245;28;20297;-62
2022/12/13 05:52:27;;;;;;;4.43;1.85;;;;;;;1.01;58.33;94787.03;5030747;28;20279;-63
2022/12/13 05:54:57;;;;;;;0.00;0.00;;;;;;;1.17;58.55;94801.34;5038833;28;20694;-61
2022/12/13 05:57:27;;;;;;;0.00;0.00;;;;;;;1.16;59.33;94803.13;5050328;28;20204;-61
2022/12/13 05:59:54;;;;;;;0.17;0.17;;;;;;;1.34;58.87;94789.59;5044871;28;20205;-62
2022/12/13 06:02:21;;;;;;;0.05;0.05;;;;;;;1.12;56.89;94795.97;5044189;28;20269;-63
2022/12/13 06:04:49;;;;;;;0.03;0.03;;;;;;;1.16;56.66;94794.56;5051140;28;20926;-64
2022/12/13 06:07:16;;;;;;;0.00;0.00;;;;;;;1.37;56.70;94820.19;5051178;28;20228;-62
2022/12/13 06:09:42;;;;;;;0.10;0.10;;;;;;;1.29;57.23;94810.06;5036992;28;20238;-64
2022/12/13 06:12:09;;;;;;;0.00;0.00;;;;;;;1.41;56.64;94803.28;5050917;28;20284;-64
2022/12/13 06:14:56;;;;;;;0.00;0.00;;;;;;;1.17;58.72;94802.13;5050748;28;20648;-63
2022/12/13 06:17:31;;;;;;;1.95;1.85;;;;;;;1.16;57.04;94810.06;5051364;28;20243;-62
2022/12/13 06:19:59;;;;;;;0.20;0.20;;;;;;;1.02;57.74;94815.22;5036575;28;20668;-63
2022/12/13 06:22:26;;;;;;;0.00;0.00;;;;;;;0.83;56.66;94800.56;5040388;28;20209;-63
2022/12/13 06:24:53;;;;;;;0.00;0.00;;;;;;;0.69;56.78;94801.50;5045208;28;20211;-63
2022/12/13 06:27:20;;;;;;;0.43;0.43;;;;;;;0.69;56.93;94798.94;5038902;28;20247;-63
2022/12/13 06:29:47;;;;;;;0.15;0.15;;;;;;;0.86;57.03;94800.16;5036962;28;20203;-62
2022/12/13 06:32:14;;;;;;;0.03;0.03;;;;;;;0.83;57.74;94805.72;5048226;28;20663;-63
2022/12/13 06:34:41;;;;;;;0.75;0.75;;;;;;;1.06;57.52;94807.09;5046469;28;20204;-62
2022/12/13 06:37:11;;;;;;;0.30;0.30;;;;;;;1.30;56.69;94809.03;5034390;28;20302;-63
2022/12/13 06:39:39;;;;;;;0.00;0.00;;;;;;;1.10;56.51;94816.00;5047799;28;20296;-62
2022/12/13 06:42:13;;;;;;;0.00;0.00;;;;;;;1.37;56.71;94817.59;5027447;28;20228;-64
2022/12/13 06:44:50;;;;;;;0.13;0.13;;;;;;;1.39;56.72;94825.91;5044102;28;20960;-65
2022/12/13 06:47:22;;;;;;;0.00;0.00;;;;;;;0.96;56.17;94821.19;5038006;28;20231;-63
2022/12/13 06:49:58;;;;;;;0.00;0.00;;;;;;;0.95;56.09;94823.94;5035054;28;20689;-64
2022/12/13 06:52:31;;;;;;;0.00;0.00;;;;;;;0.91;57.52;94831.28;5031508;28;20205;-62
2022/12/13 06:54:58;;;;;;;0.00;0.00;;;;;;;0.72;55.52;94824.34;5050238;28;20291;-63
2022/12/13 06:57:25;;;;;;;0.68;0.68;;;;;;;0.94;55.90;94827.53;5049963;28;20228;-65
2022/12/13 06:59:52;;;;;;;0.00;0.00;;;;;;;0.87;57.25;94822.38;5036414;28;20597;-64
2022/12/13 07:02:20;;;;;;;0.00;0.00;;;;;;;0.92;56.62;94832.91;5037516;28;20320;-64
2022/12/13 07:04:52;;;;;;;0.98;0.65;;;;;;;0.89;57.37;94828.09;5049167;28;20205;-65
2022/12/13 07:07:19;;;;;;;0.00;0.00;;;;;;;1.12;56.99;94820.00;5049980;28;20212;-64
2022/12/13 07:09:45;;;;;;;0.05;0.05;;;;;;;1.20;56.97;94824.16;5049644;28;20200;-63
2022/12/13 07:12:12;;;;;;;7.63;2.15;;;;;;;1.07;54.79;94811.25;5040212;28;20259;-62
2022/12/13 07:14:39;;;;;;;0.00;0.00;;;;;;;1.36;55.14;94826.31;5044153;28;20193;-62
2022/12/13 07:17:07;;;;;;;0.82;0.32;;;;;;;1.34;55.32;94828.31;5037732;28;20207;-62
2022/12/13 07:19:35;;;;;;;0.20;0.20;;;;;;;1.31;55.50;94842.44;5035542;28;20209;-65
2022/12/13 07:22:04;;;;;;;0.47;0.47;;;;;;;1.28;55.18;94849.78;5043422;28;20221;-64
2022/12/13 07:24:33;;;;;;;0.28;0.28;;;;;;;1.51;54.37;94845.78;5042967;28;20663;-64
2022/12/13 07:27:01;;;;;;;0.30;0.30;;;;;;;1.32;54.18;94850.94;5035329;28;20287;-63
2022/12/13 07:29:28;;;;;;;0.35;0.35;;;;;;;1.24;55.10;94848.59;5035822;28;20209;-63
2022/12/13 07:31:55;;;;;;;0.77;0.77;;;;;;;1.22;54.38;94861.69;5035649;28;20192;-63
2022/12/13 07:34:28;;;;;;;0.00;0.00;;;;;;;1.28;53.99;94855.72;5038750;28;21428;-64
2022/12/13 07:36:54;;;;;;;0.03;0.03;;;;;;;1.54;54.45;94865.22;5041492;28;20296;-66
2022/12/13 07:39:24;;;;;;;0.00;0.00;;;;;;;1.27;55.15;94861.88;5041961;28;20265;-63
2022/12/13 07:41:54;;;;;;;2.45;1.45;;;;;;;1.41;54.47;94855.72;5044573;28;20676;-62
2022/12/13 07:44:23;;;;;;;0.55;0.55;;;;;;;1.58;54.30;94850.94;5028810;28;20209;-62
2022/12/13 07:46:49;;;;;;;0.47;0.47;;;;;;;1.31;54.19;94854.53;5046943;28;20196;-63
2022/12/13 07:49:16;;;;;;;0.95;0.95;;;;;;;1.58;53.87;94856.09;5037068;28;20319;-61
2022/12/13 07:51:44;;;;;;;0.35;0.35;;;;;;;1.59;54.15;94853.31;5039803;28;20307;-62
2022/12/13 07:54:11;;;;;;;1.50;1.40;;;;;;;1.52;54.67;94865.44;5043293;28;20204;-62
2022/12/13 07:56:38;;;;;;;0.10;0.10;;;;;;;1.39;53.36;94851.72;5038511;28;20185;-63
2022/12/13 07:59:04;;;;;;;0.00;0.00;;;;;;;1.47;53.00;94861.88;5021418;28;21052;-61
2022/12/13 08:01:35;;;;;;;0.00;0.00;;;;;;;1.51;52.50;94865.63;5048565;28;20240;-63
2022/12/13 08:04:03;;;;;;;0.45;0.45;;;;;;;1.66;52.44;94868.81;5048931;28;20197;-63
2022/12/13 08:06:35;;;;;;;1.70;0.68;;;;;;;1.72;54.05;94863.63;5044442;28;20273;-62
2022/12/13 08:09:04;;;;;;;0.60;0.60;;;;;;;1.93;52.33;94858.19;5048828;28;20258;-63
2022/12/13 08:11:32;;;;;;;1.23;1.13;;;;;;;1.90;52.88;94850.06;5045603;28;20195;-63
2022/12/13 08:13:58;;;;;;;0.47;0.45;;;;;;;2.05;51.80;94869.50;5048577;28;20243;-63
2022/12/13 08:16:25;;;;;;;0.20;0.20;;;;;;;2.13;51.00;94865.91;5048061;28;20192;-64
2022/12/13 08:18:57;;;;;;;0.00;0.00;;;;;;;2.13;51.95;94855.56;5048577;28;20192;-62
2022/12/13 08:21:33;;;;;;;0.00;0.00;;;;;;;2.15;51.95;94863.91;5046437;28;20666;-63
2022/12/13 08:24:20;;;;;;;0.10;0.10;;;;;;;1.52;52.24;94877.53;5048171;28;20672;-61
2022/12/13 08:26:47;;;;;;;0.00;0.00;;;;;;;1.57;53.09;94870.78;5037693;28;20582;-65
2022/12/13 08:29:14;;;;;;;0.00;0.00;;;;;;;2.12;51.35;94881.63;5036413;28;20643;-63
2022/12/13 08:32:06;;;;;;;0.52;0.45;;;;;;;2.58;51.53;94870.09;5034620;28;20263;-64
2022/12/13 08:34:33;;;;;;;1.08;0.85;;;;;;;2.48;50.72;94874.91;5043574;28;20207;-65
2022/12/13 08:37:00;;;;;;;0.40;0.40;;;;;;;2.47;50.67;94862.97;5040046;28;20291;-63
2022/12/13 08:39:33;;;;;;;0.13;0.13;;;;;;;3.11;49.86;94844.69;5034790;28;20632;-62
2022/12/13 08:42:16;;;;;;;0.88;0.25;;;;;;;2.73;48.64;94856.88;5022790;28;20309;-64
2022/12/13 08:44:47;;;;;;;0.88;0.80;;;;;;;3.16;49.19;94854.41;5046086;28;20275;-62
2022/12/13 08:47:15;;;;;;;0.00;0.00;;;;;;;3.68;47.81;94846.19;5038998;28;20189;-62
2022/12/13 08:49:52;;;;;;;2.08;0.95;;;;;;;3.81;47.83;94840.88;5048050;28;20255;-62
2022/12/13 08:52:21;;;;;;;0.00;0.00;;;;;;;3.81;45.31;94839.06;5047361;28;20214;-63
2022/12/13 08:54:48;;;;;;;0.55;0.55;;;;;;;3.68;46.72;94825.47;5038546;28;20224;-63
2022/12/13 08:57:15;;;;;;;0.77;0.77;;;;;;;3.35;47.16;94832.75;5052204;28;20192;-62
2022/12/13 08:59:44;;;;;;;0.00;0.00;;;;;;;3.37;47.87;94833.31;5037669;28;20197;-62
2022/12/13 09:02:12;;;;;;;0.13;0.13;;;;;;;3.70;46.27;94826.03;5040668;28;20316;-64
2022/12/13 09:04:39;;;;;;;1.45;1.35;;;;;;;3.65;45.98;94820.72;5049736;28;20209;-63
2022/12/13 09:07:06;;;;;;;1.35;0.55;;;;;;;3.63;46.79;94833.09;5042460;28;20205;-62
2022/12/13 09:09:33;;;;;;;0.20;0.20;;;;;;;4.02;45.64;94819.72;5046043;28;20201;-61
2022/12/13 09:12:02;;;;;;;0.00;0.00;;;;;;;4.40;45.29;94820.25;5047488;28;20201;-62
2022/12/13 09:14:37;;;;;;;1.00;0.32;;;;;;;4.60;44.55;94825.97;5037909;28;20255;-63
2022/12/13 09:17:15;;;;;;;0.17;0.17;;;;;;;5.04;44.33;94816.97;5051817;28;20226;-63
2022/12/13 09:19:51;;;;;;;0.00;0.00;;;;;;;5.52;43.19;94814.19;5037479;28;20199;-64
2022/12/13 09:22:24;;;;;;;1.23;1.13;;;;;;;5.63;42.15;94805.63;5051589;28;20295;-64
2022/12/13 09:25:01;;;;;;;0.10;0.10;;;;;;;5.87;41.23;94796.81;5051469;28;20192;-64
2022/12/13 09:27:29;;;;;;;0.45;0.45;;;;;;;5.83;41.59;94806.09;5051789;28;20199;-64
2022/12/13 09:30:07;;;;;;;0.03;0.03;;;;;;;5.94;40.57;94789.69;5032622;28;20189;-64
2022/12/13 09:32:34;;;;;;;0.30;0.30;;;;;;;5.39;40.89;94784.03;5048410;28;20264;-65
2022/12/13 09:35:00;;;;;;;0.25;0.25;;;;;;;5.64;42.91;94791.63;5039294;28;20283;-65
2022/12/13 09:37:28;;;;;;;0.68;0.68;;;;;;;5.50;41.66;94795.44;5044270;28;20204;-65
2022/12/13 09:39:55;;;;;;;0.08;0.08;;;;;;;5.29;42.39;94798.59;5031614;28;20296;-64
2022/12/13 09:42:25;;;;;;;0.50;0.50;;;;;;;5.61;42.75;94789.44;5042351;28;20228;-63
2022/12/13 09:45:02;;;;;;;0.00;0.00;;;;;;;5.66;42.85;94789.56;5044069;28;20261;-64
2022/12/13 09:47:34;;;;;;;0.00;0.00;;;;;;;5.76;43.73;94785.38;5043863;28;20205;-64
2022/12/13 09:50:11;;;;;;;0.05;0.05;;;;;;;6.08;43.90;94785.78;5043206;28;20540;-63
2022/12/13 09:52:43;;;;;;;0.10;0.10;;;;;;;6.36;43.65;94778.03;5037222;28;20295;-63
2022/12/13 09:55:17;;;;;;;0.15;0.15;;;;;;;6.91;43.27;94779.03;5050940;28;20675;-64
2022/12/13 09:57:44;;;;;;;0.15;0.15;;;;;;;6.86;42.51;94770.34;5049453;28;20752;-63
2022/12/13 10:00:15;;;;;;;1.65;1.02;;;;;;;6.58;42.09;94778.16;5050987;28;20342;-63
2022/12/13 10:02:48;;;;;;;0.47;0.47;;;;;;;6.84;42.33;94773.16;5046903;28;20308;-63
2022/12/13 10:05:36;;;;;;;0.70;0.70;;;;;;;6.93;40.62;94779.56;5024927;28;20211;-64
2022/12/13 10:08:13;;;;;;;0.82;0.60;;;;;;;7.09;42.48;94768.41;5037231;28;20219;-63
2022/12/13 10:10:42;;;;;;;0.08;0.08;;;;;;;6.71;41.19;94760.47;5050851;28;20211;-63
2022/12/13 10:13:47;;;;;;;0.30;0.30;;;;;;;6.86;42.14;94760.69;5030965;28;20209;-62
2022/12/13 10:16:21;;;;;;;0.35;0.35;;;;;;;6.78;41.86;94763.69;4986220;28;20690;-63
2022/12/13 10:18:49;;;;;;;0.00;0.00;;;;;;;6.88;42.81;94756.03;4988797;28;20214;-64
2022/12/13 10:21:21;;;;;;;0.55;0.55;;;;;;;6.91;42.34;94758.19;5021815;28;20224;-62
2022/12/13 10:23:48;;;;;;;0.28;0.28;;;;;;;6.98;41.92;94745.81;5051073;28;20231;-65
2022/12/13 10:26:37;;;;;;;0.22;0.22;;;;;;;6.61;39.99;94744.66;5045618;28;20296;-63
2022/12/13 10:29:05;;;;;;;1.35;0.73;;;;;;;5.74;40.64;94725.03;5041181;28;20231;-63
2022/12/13 10:31:44;;;;;;;0.25;0.25;;;;;;;6.02;39.86;94732.13;5036660;28;20288;-64
2022/12/13 10:34:28;;;;;;;0.40;0.40;;;;;;;6.18;41.59;94730.59;5041669;28;20687;-65
2022/12/13 10:36:55;;;;;;;0.00;0.00;;;;;;;5.39;40.39;94719.09;5035867;28;20211;-65
2022/12/13 10:39:40;;;;;;;0.08;0.08;;;;;;;5.77;41.06;94726.38;5041565;28;20205;-64
2022/12/13 10:42:13;;;;;;;0.10;0.10;;;;;;;5.11;42.21;94724.97;5041554;28;20244;-64
2022/12/13 10:45:20;;;;;;;1.60;1.50;;;;;;;5.64;41.93;94724.03;5049988;28;20250;-65
2022/12/13 10:47:49;;;;;;;2.63;0.55;;;;;;;6.30;42.06;94718.31;5036175;28;20201;-62
2022/12/13 10:50:26;;;;;;;1.02;0.95;;;;;;;6.20;42.41;94713.72;5035818;28;20679;-64
2022/12/13 10:52:54;;;;;;;0.00;0.00;;;;;;;5.86;42.21;94717.22;5048584;28;20235;-65
2022/12/13 10:55:27;;;;;;;0.00;0.00;;;;;;;5.90;43.00;94713.13;5039447;28;20213;-64
2022/12/13 10:57:57;;;;;;;0.57;0.57;;;;;;;5.86;43.22;94699.81;5046553;28;20196;-65
2022/12/13 11:00:36;;;;;;;0.30;0.30;;;;;;;5.92;43.49;94705.91;5039034;28;20228;-66
2022/12/13 11:03:04;;;;;;;2.65;1.20;;;;;;;5.73;44.35;94701.88;5047820;28;20216;-64
2022/12/13 11:05:34;;;;;;;0.38;0.38;;;;;;;5.91;45.05;94709.53;5049497;28;20207;-64
2022/12/13 11:08:19;;;;;;;0.40;0.40;;;;;;;5.92;43.91;94692.91;5039987;28;20200;-65
2022/12/13 11:10:56;;;;;;;0.20;0.20;;;;;;;6.00;42.34;94692.53;5041416;28;20262;-64
2022/12/13 11:15:24;;;;;;;0.00;0.00;;;;;;;7.65;41.37;94685.75;5027627;28;20546;-65
2022/12/13 11:17:58;;;;;;;0.00;0.00;;;;;;;7.19;39.45;94672.13;5025078;28;20197;-63
2022/12/13 11:20:36;;;;;;;0.10;0.10;;;;;;;6.81;38.23;94674.69;5034786;28;20228;-64
2022/12/13 11:23:42;;;;;;;0.50;0.50;;;;;;;6.78;40.23;94675.16;5029222;28;20492;-64
2022/12/13 11:26:19;;;;;;;0.38;0.38;;;;;;;7.27;40.88;94657.09;5037129;28;20212;-64
2022/12/13 11:28:59;;;;;;;0.08;0.08;;;;;;;7.73;40.24;94664.47;5026348;28;20197;-64
2022/12/13 11:31:47;;;;;;;0.20;0.20;;;;;;;8.08;39.64;94670.13;5037192;28;20200;-63
2022/12/13 11:34:40;;;;;;;0.10;0.10;;;;;;;8.07;41.11;94660.69;5027564;28;20205;-65
2022/12/13 11:37:24;;;;;;;0.10;0.10;;;;;;;8.02;40.52;94665.88;5033051;28;20593;-66
2022/12/13 11:39:58;;;;;;;0.95;0.85;;;;;;;8.14;40.81;94675.13;5025810;28;20211;-64
2022/12/13 11:42:43;;;;;;;0.57;0.35;;;;;;;8.26;41.06;94682.84;5017830;28;20224;-64
2022/12/13 11:45:53;;;;;;;0.95;0.90;;;;;;;8.19;40.33;94677.00;5008654;28;20641;-64
2022/12/13 11:48:43;;;;;;;0.28;0.28;;;;;;;8.34;39.11;94674.56;5025292;28;20205;-65
2022/12/13 11:51:12;;;;;;;6.53;1.65;;;;;;;8.68;38.39;94667.31;5025410;28;20220;-63
2022/12/13 11:54:29;;;;;;;0.38;0.38;;;;;;;9.22;36.52;94671.38;5022215;28;20258;-63
2022/12/13 11:57:04;;;;;;;0.00;0.00;;;;;;;9.98;35.59;94659.47;4996301;28;20236;-63
2022/12/13 11:59:44;;;;;;;0.65;0.65;;;;;;;10.39;35.39;94655.94;5020007;28;20606;-65
2022/12/13 12:02:20;;;;;;;1.75;1.02;;;;;;;11.57;34.89;94643.28;5024789;28;20498;-63
2022/12/13 12:04:53;;;;;;;1.03;0.97;;;;;;;11.84;34.41;94649.00;5022823;28;20296;-62
2022/12/13 12:07:44;;;;;;;0.10;0.10;;;;;;;13.58;32.64;94639.31;5024980;28;20501;-64
2022/12/13 12:10:41;;;;;;;0.30;0.30;;;;;;;14.40;31.39;94612.50;5021623;28;20446;-62
2022/12/13 12:13:32;;;;;;;0.70;0.70;;;;;;;14.69;30.16;94615.78;5024043;28;20495;-67
2022/12/13 12:16:36;;;;;;;0.67;0.67;;;;;;;14.98;29.91;94613.72;5024175;28;20450;-67
2022/12/13 12:19:13;;;;;;;0.97;0.70;;;;;;;16.04;28.52;94625.00;5012132;28;20521;-66